createdAt,value
2023-01-28T00:00:38.683Z,70.22
2023-01-28T00:03:05.187Z,69.49
2023-01-28T00:05:31.901Z,70.14
2023-01-28T00:07:58.617Z,69.45
2023-01-28T00:10:25.262Z,70.09
2023-01-28T00:12:52.063Z,69.85
2023-01-28T00:15:18.715Z,69.24
2023-01-28T00:17:45.377Z,70.22
2023-01-28T00:20:12.518Z,70.13
2023-01-28T00:22:39.104Z,70.05
2023-01-28T00:25:05.827Z,70.39
2023-01-28T00:27:32.776Z,70.31
2023-01-28T00:29:59.732Z,70.38
2023-01-28T00:32:26.435Z,69.00
2023-01-28T00:34:53.039Z,69.70
2023-01-28T00:37:19.706Z,69.45
2023-01-28T00:39:46.301Z,68.88
2023-01-28T00:42:12.933Z,69.05
2023-01-28T00:44:39.581Z,69.27
2023-01-28T00:47:06.223Z,68.69
2023-01-28T00:49:32.834Z,68.91
2023-01-28T00:51:59.654Z,69.02
2023-01-28T00:54:26.260Z,70.25
2023-01-28T00:56:53.628Z,69.95
2023-01-28T00:59:20.602Z,70.18
2023-01-28T01:01:47.533Z,70.11
2023-01-28T01:04:14.223Z,70.30
2023-01-28T01:06:41.549Z,69.89
2023-01-28T01:09:11.519Z,69.50
2023-01-28T01:11:39.044Z,69.50
2023-01-28T01:14:08.640Z,70.26
2023-01-28T01:16:41.824Z,69.64
2023-01-28T01:19:09.691Z,70.37
2023-01-28T01:21:36.403Z,69.90
2023-01-28T01:24:03.249Z,69.77
2023-01-28T01:26:30.016Z,69.66
2023-01-28T01:28:57.764Z,69.72
2023-01-28T01:31:24.531Z,69.60
2023-01-28T01:33:53.232Z,69.49
2023-01-28T01:36:21.741Z,69.77
2023-01-28T01:38:48.823Z,69.87
2023-01-28T01:41:35.064Z,70.17
2023-01-28T01:44:04.626Z,69.63
2023-01-28T01:46:51.032Z,69.70
2023-01-28T01:49:26.674Z,69.73
2023-01-28T01:52:15.395Z,69.62
2023-01-28T01:54:45.454Z,70.00
2023-01-28T01:57:16.040Z,70.68
2023-01-28T01:59:43.876Z,70.28
2023-01-28T02:02:11.799Z,70.58
2023-01-28T02:04:44.720Z,70.86
2023-01-28T02:07:17.380Z,70.53
2023-01-28T02:09:44.178Z,71.08
2023-01-28T02:12:17.068Z,71.05
2023-01-28T02:15:21.528Z,71.17
2023-01-28T02:17:50.376Z,71.05
2023-01-28T02:20:25.822Z,70.82
2023-01-28T02:23:05.078Z,70.85
2023-01-28T02:25:57.416Z,71.42
2023-01-28T02:28:37.047Z,71.60
2023-01-28T02:31:24.166Z,71.81
2023-01-28T02:33:53.858Z,72.47
2023-01-28T02:36:29.573Z,73.32
2023-01-28T02:39:02.193Z,72.77
2023-01-28T02:41:35.084Z,73.33
2023-01-28T02:44:03.554Z,73.31
2023-01-28T02:46:49.029Z,73.48
2023-01-28T02:49:20.733Z,73.57
2023-01-28T02:52:42.041Z,73.18
2023-01-28T02:55:21.828Z,73.54
2023-01-28T02:58:07.184Z,72.99
2023-01-28T03:00:47.086Z,73.17
2023-01-28T03:03:40.650Z,73.51
2023-01-28T03:06:12.133Z,73.63
2023-01-28T03:09:04.871Z,73.37
2023-01-28T03:11:52.445Z,73.79
2023-01-28T03:14:39.510Z,73.54
2023-01-28T03:17:31.136Z,74.42
2023-01-28T03:20:16.334Z,73.85
2023-01-28T03:23:08.050Z,73.63
2023-01-28T03:25:58.560Z,73.14
2023-01-28T03:28:45.593Z,71.59
2023-01-28T03:31:38.606Z,71.09
2023-01-28T03:34:24.733Z,70.70
2023-01-28T03:36:53.492Z,71.54
2023-01-28T03:39:32.378Z,71.33
2023-01-28T03:42:12.254Z,71.24
2023-01-28T03:45:01.694Z,71.73
2023-01-28T03:47:30.427Z,72.28
2023-01-28T03:49:59.893Z,72.06
2023-01-28T03:52:31.918Z,72.37
2023-01-28T03:55:21.369Z,72.36
2023-01-28T03:57:48.004Z,72.48
2023-01-28T04:00:17.115Z,72.70
2023-01-28T04:02:44.149Z,72.76
2023-01-28T04:05:16.253Z,72.68
2023-01-28T04:07:47.370Z,72.55
2023-01-28T04:10:28.032Z,73.09
2023-01-28T04:13:06.734Z,73.00
2023-01-28T04:15:33.959Z,73.39
2023-01-28T04:18:00.889Z,73.26
2023-01-28T04:20:29.901Z,73.33
2023-01-28T04:22:59.265Z,74.28
2023-01-28T04:25:25.927Z,74.03
2023-01-28T04:27:52.714Z,74.53
2023-01-28T04:30:25.540Z,75.15
2023-01-28T04:33:22.303Z,75.06
2023-01-28T04:36:02.016Z,75.66
2023-01-28T04:38:52.311Z,76.06
2023-01-28T04:41:27.346Z,76.50
2023-01-28T04:43:57.642Z,76.51
2023-01-28T04:46:38.591Z,76.88
2023-01-28T04:49:23.693Z,76.70
2023-01-28T04:51:50.253Z,77.55
2023-01-28T04:54:42.790Z,77.18
2023-01-28T04:57:09.558Z,77.72
2023-01-28T04:59:36.526Z,78.14
2023-01-28T05:02:03.282Z,78.06
2023-01-28T05:04:30.269Z,78.27
2023-01-28T05:06:56.843Z,78.45
2023-01-28T05:09:28.614Z,78.48
2023-01-28T05:11:56.080Z,78.24
2023-01-28T05:14:23.322Z,78.97
2023-01-28T05:16:57.521Z,79.06
2023-01-28T05:19:24.471Z,79.42
2023-01-28T05:21:51.107Z,78.69
2023-01-28T05:24:27.637Z,79.29
2023-01-28T05:26:54.240Z,79.60
2023-01-28T05:29:21.003Z,79.06
2023-01-28T05:31:48.432Z,79.82
2023-01-28T05:34:16.016Z,78.89
2023-01-28T05:36:44.417Z,78.77
2023-01-28T05:39:36.268Z,79.68
2023-01-28T05:42:03.944Z,79.69
2023-01-28T05:44:32.972Z,79.86
2023-01-28T05:47:15.552Z,79.68
2023-01-28T05:49:48.015Z,80.12
2023-01-28T05:52:26.640Z,79.52
2023-01-28T05:54:53.311Z,79.47
2023-01-28T05:57:19.971Z,79.44
2023-01-28T05:59:46.718Z,79.50
2023-01-28T06:02:13.394Z,79.43
2023-01-28T06:04:41.538Z,79.54
2023-01-28T06:07:09.148Z,79.67
2023-01-28T06:09:37.974Z,78.92
2023-01-28T06:12:05.030Z,78.89
2023-01-28T06:14:38.845Z,79.38
2023-01-28T06:17:10.614Z,79.19
2023-01-28T06:19:59.771Z,79.39
2023-01-28T06:22:27.315Z,79.59
2023-01-28T06:24:53.896Z,79.04
2023-01-28T06:27:20.828Z,79.29
2023-01-28T06:29:47.397Z,79.80
2023-01-28T06:32:14.158Z,79.46
2023-01-28T06:34:41.000Z,79.24
2023-01-28T06:37:07.680Z,79.54
2023-01-28T06:39:34.178Z,78.89
2023-01-28T06:42:00.825Z,79.37
2023-01-28T06:44:27.403Z,79.56
2023-01-28T06:46:54.016Z,79.47
2023-01-28T06:49:21.842Z,79.55
2023-01-28T06:51:49.139Z,80.31
2023-01-28T06:54:15.774Z,80.37
2023-01-28T06:56:42.947Z,80.24
2023-01-28T06:59:09.570Z,79.53
2023-01-28T07:01:36.165Z,79.57
2023-01-28T07:04:02.689Z,80.13
2023-01-28T07:06:29.319Z,80.00
2023-01-28T07:08:55.941Z,79.98
2023-01-28T07:11:22.598Z,80.12
2023-01-28T07:13:49.216Z,79.70
2023-01-28T07:16:15.770Z,79.92
2023-01-28T07:18:42.262Z,79.90
2023-01-28T07:21:08.760Z,79.94
2023-01-28T07:23:35.452Z,79.49
2023-01-28T07:26:05.013Z,80.09
2023-01-28T07:28:31.897Z,79.38
2023-01-28T07:30:58.478Z,79.75
2023-01-28T07:33:25.050Z,79.33
2023-01-28T07:35:51.554Z,78.87
2023-01-28T07:38:18.193Z,78.73
2023-01-28T07:40:45.586Z,77.87
2023-01-28T07:43:12.383Z,76.49
2023-01-28T07:45:40.973Z,75.66
2023-01-28T07:48:11.199Z,75.88
2023-01-28T07:50:38.297Z,74.86
2023-01-28T07:53:07.407Z,75.26
2023-01-28T07:55:35.957Z,74.25
2023-01-28T07:58:04.526Z,73.62
2023-01-28T08:00:32.861Z,72.66
2023-01-28T08:03:02.052Z,71.35
2023-01-28T08:05:49.768Z,69.18
2023-01-28T08:08:17.278Z,62.78
2023-01-28T08:10:44.302Z,62.99
2023-01-28T08:13:12.009Z,63.01
2023-01-28T08:15:38.914Z,59.67
2023-01-28T08:18:07.411Z,55.30
2023-01-28T08:20:34.744Z,55.72
2023-01-28T08:23:28.030Z,54.50
2023-01-28T08:25:55.233Z,54.85
2023-01-28T08:28:21.952Z,55.00
2023-01-28T08:30:48.683Z,53.24
2023-01-28T08:33:16.882Z,52.88
2023-01-28T08:35:44.210Z,51.33
2023-01-28T08:38:13.150Z,51.71
2023-01-28T08:40:40.563Z,51.58
2023-01-28T08:43:07.259Z,51.65
2023-01-28T08:45:33.825Z,51.02
2023-01-28T08:48:10.897Z,51.28
2023-01-28T08:50:38.822Z,52.00
2023-01-28T08:53:06.241Z,51.45
2023-01-28T08:55:34.324Z,51.00
2023-01-28T08:58:06.115Z,50.30
2023-01-28T09:00:33.404Z,49.81
2023-01-28T09:03:00.105Z,48.08
2023-01-28T09:05:26.784Z,46.97
2023-01-28T09:07:53.354Z,45.32
2023-01-28T09:10:22.857Z,45.15
2023-01-28T09:12:49.396Z,44.73
2023-01-28T09:15:16.009Z,43.96
2023-01-28T09:17:42.485Z,42.79
2023-01-28T09:20:09.875Z,40.39
2023-01-28T09:22:36.546Z,39.76
2023-01-28T09:25:03.225Z,39.32
2023-01-28T09:27:29.819Z,38.63
2023-01-28T09:29:56.374Z,39.14
2023-01-28T09:32:25.002Z,37.93
2023-01-28T09:34:51.563Z,36.60
2023-01-28T09:37:18.338Z,36.12
2023-01-28T09:39:44.854Z,35.31
2023-01-28T09:42:31.789Z,37.21
2023-01-28T09:45:16.119Z,35.65
2023-01-28T09:47:52.851Z,37.23
2023-01-28T09:50:30.880Z,38.15
2023-01-28T09:53:04.729Z,38.37
2023-01-28T09:55:44.571Z,38.32
2023-01-28T09:58:12.520Z,37.85
2023-01-28T10:00:47.937Z,36.97
2023-01-28T10:03:22.509Z,35.98
2023-01-28T10:06:21.467Z,36.27
2023-01-28T10:09:25.371Z,35.77
2023-01-28T10:12:02.317Z,37.66
2023-01-28T10:14:40.915Z,36.69
2023-01-28T10:17:11.203Z,35.60
2023-01-28T10:19:43.811Z,36.50
2023-01-28T10:22:24.688Z,35.50
2023-01-28T10:25:02.043Z,33.41
2023-01-28T10:27:31.782Z,32.18
2023-01-28T10:30:18.154Z,32.19
2023-01-28T10:32:51.815Z,30.51
2023-01-28T10:35:19.013Z,31.40
2023-01-28T10:37:45.705Z,30.85
2023-01-28T10:40:19.369Z,30.44
2023-01-28T10:42:46.150Z,30.90
2023-01-28T10:45:20.766Z,29.83
2023-01-28T10:47:56.274Z,30.49
2023-01-28T10:50:25.493Z,30.66
2023-01-28T10:53:04.014Z,30.65
2023-01-28T10:55:44.563Z,29.35
2023-01-28T10:58:22.454Z,28.59
2023-01-28T11:00:57.751Z,26.87
2023-01-28T11:03:29.095Z,28.41
2023-01-28T11:05:57.050Z,26.41
2023-01-28T11:08:25.746Z,26.73
2023-01-28T11:10:53.653Z,29.11
2023-01-28T11:13:28.560Z,27.59
2023-01-28T11:16:17.292Z,25.83
2023-01-28T11:18:55.648Z,26.47
2023-01-28T11:21:26.089Z,27.36
2023-01-28T11:24:16.637Z,28.51
2023-01-28T11:26:45.927Z,29.16
2023-01-28T11:29:32.629Z,29.62
2023-01-28T11:32:00.731Z,28.90
2023-01-28T11:34:29.743Z,27.96
2023-01-28T11:37:14.267Z,27.51
2023-01-28T11:39:40.891Z,25.92
2023-01-28T11:42:20.594Z,25.07
2023-01-28T11:44:48.791Z,27.40
2023-01-28T11:47:44.374Z,25.60
2023-01-28T11:50:39.111Z,24.44
2023-01-28T11:53:44.422Z,24.33
2023-01-28T11:56:33.175Z,23.69
2023-01-28T11:58:59.745Z,24.56
2023-01-28T12:01:34.812Z,24.14
2023-01-28T12:04:20.759Z,23.29
2023-01-28T12:06:53.194Z,26.93
2023-01-28T12:09:39.838Z,25.18
2023-01-28T12:12:44.634Z,23.89
2023-01-28T12:15:30.912Z,22.58
2023-01-28T12:18:03.440Z,22.95
2023-01-28T12:20:50.301Z,24.56
2023-01-28T12:23:28.709Z,23.97
2023-01-28T12:26:20.748Z,24.13
2023-01-28T12:29:24.912Z,23.04
2023-01-28T12:32:28.764Z,23.02
2023-01-28T12:35:36.626Z,22.12
2023-01-28T12:38:37.399Z,21.73
2023-01-28T12:41:28.186Z,22.18
2023-01-28T12:44:03.784Z,22.56
2023-01-28T12:46:48.545Z,22.76
2023-01-28T12:49:24.339Z,22.64
2023-01-28T12:52:06.073Z,21.28
2023-01-28T12:54:39.335Z,20.48
2023-01-28T12:57:08.384Z,21.71
2023-01-28T12:59:45.476Z,20.84
2023-01-28T13:02:12.098Z,21.59
2023-01-28T13:04:47.684Z,23.27
2023-01-28T13:07:37.216Z,22.81
2023-01-28T13:10:29.075Z,22.99
2023-01-28T13:12:57.403Z,23.64
2023-01-28T13:15:25.042Z,24.74
2023-01-28T13:18:02.931Z,24.02
2023-01-28T13:20:48.384Z,23.32
2023-01-28T13:23:44.753Z,24.27
2023-01-28T13:26:11.288Z,26.85
2023-01-28T13:28:37.888Z,25.98
2023-01-28T13:31:14.465Z,25.69
2023-01-28T13:33:42.296Z,26.94
2023-01-28T13:36:18.181Z,25.95
2023-01-28T13:38:46.071Z,26.17
2023-01-28T13:41:12.732Z,25.77
2023-01-28T13:43:42.055Z,26.74
2023-01-28T13:46:10.591Z,27.22
2023-01-28T13:48:52.016Z,26.48
2023-01-28T13:51:22.834Z,26.37
2023-01-28T13:53:59.496Z,25.14
2023-01-28T13:56:30.557Z,24.77
2023-01-28T13:59:12.202Z,24.31
2023-01-28T14:02:00.246Z,23.64
2023-01-28T14:04:54.821Z,22.68
2023-01-28T14:07:54.794Z,22.09
2023-01-28T14:11:09.257Z,22.44
2023-01-28T14:13:48.135Z,21.54
2023-01-28T14:16:23.844Z,24.72
2023-01-28T14:18:52.436Z,25.08
2023-01-28T14:21:21.015Z,24.69
2023-01-28T14:23:53.982Z,26.38
2023-01-28T14:26:39.255Z,24.97
2023-01-28T14:29:21.583Z,25.88
2023-01-28T14:31:48.583Z,24.30
2023-01-28T14:34:35.730Z,23.48
2023-01-28T14:37:08.004Z,24.61
2023-01-28T14:39:48.655Z,25.18
2023-01-28T14:42:27.483Z,24.13
2023-01-28T14:45:09.448Z,23.43
2023-01-28T14:47:45.551Z,22.83
2023-01-28T14:50:35.250Z,22.07
2023-01-28T14:53:39.598Z,23.92
2023-01-28T14:56:43.090Z,22.65
2023-01-28T14:59:12.541Z,21.07
2023-01-28T15:01:45.098Z,20.94
2023-01-28T15:04:34.752Z,22.59
2023-01-28T15:07:16.399Z,21.71
2023-01-28T15:09:43.132Z,23.28
2023-01-28T15:12:10.186Z,23.68
2023-01-28T15:14:36.830Z,23.33
2023-01-28T15:17:03.607Z,23.49
2023-01-28T15:19:33.480Z,23.12
2023-01-28T15:22:03.279Z,23.20
2023-01-28T15:24:32.230Z,22.99
2023-01-28T15:26:58.941Z,24.78
2023-01-28T15:29:36.903Z,23.43
2023-01-28T15:32:05.158Z,24.74
2023-01-28T15:34:32.148Z,25.82
2023-01-28T15:37:02.069Z,25.96
2023-01-28T15:39:30.031Z,26.19
2023-01-28T15:42:03.512Z,25.71
2023-01-28T15:44:32.708Z,26.43
2023-01-28T15:47:01.175Z,26.10
2023-01-28T15:49:32.684Z,26.71
2023-01-28T15:52:00.105Z,27.67
2023-01-28T15:54:27.011Z,27.97
2023-01-28T15:56:53.605Z,26.96
2023-01-28T15:59:27.121Z,27.12
2023-01-28T16:02:12.524Z,28.02
2023-01-28T16:04:39.138Z,29.08
2023-01-28T16:07:05.816Z,29.74
2023-01-28T16:09:34.269Z,31.44
2023-01-28T16:12:02.729Z,31.52
2023-01-28T16:14:52.413Z,32.93
2023-01-28T16:17:23.437Z,34.11
2023-01-28T16:20:01.233Z,34.07
2023-01-28T16:22:36.978Z,35.09
2023-01-28T16:25:24.064Z,37.02
2023-01-28T16:27:50.653Z,37.63
2023-01-28T16:30:17.782Z,38.11
2023-01-28T16:32:45.170Z,37.80
2023-01-28T16:35:20.205Z,38.51
2023-01-28T16:37:48.227Z,39.07
2023-01-28T16:40:16.049Z,39.53
2023-01-28T16:42:44.680Z,40.90
2023-01-28T16:45:20.139Z,41.70
2023-01-28T16:47:47.058Z,44.75
2023-01-28T16:50:15.348Z,43.46
2023-01-28T16:52:44.423Z,44.35
2023-01-28T16:55:14.740Z,44.68
2023-01-28T16:57:43.354Z,45.46
2023-01-28T17:00:19.323Z,45.89
2023-01-28T17:02:46.572Z,46.61
2023-01-28T17:05:15.153Z,47.00
2023-01-28T17:07:42.471Z,47.51
2023-01-28T17:10:10.376Z,47.63
2023-01-28T17:12:36.912Z,48.26
2023-01-28T17:15:03.947Z,48.61
2023-01-28T17:17:30.603Z,48.50
2023-01-28T17:19:57.190Z,48.82
2023-01-28T17:22:23.801Z,49.20
2023-01-28T17:24:50.364Z,49.17
2023-01-28T17:27:16.995Z,49.24
2023-01-28T17:29:43.503Z,50.04
2023-01-28T17:32:10.220Z,50.05
2023-01-28T17:34:36.760Z,50.56
2023-01-28T17:37:03.437Z,50.78
2023-01-28T17:39:30.021Z,51.63
2023-01-28T17:41:56.933Z,51.46
2023-01-28T17:44:23.586Z,51.57
2023-01-28T17:46:50.200Z,52.58
2023-01-28T17:49:16.711Z,52.30
2023-01-28T17:51:43.306Z,52.03
2023-01-28T17:54:11.808Z,51.70
2023-01-28T17:56:38.899Z,52.51
2023-01-28T17:59:06.586Z,51.79
2023-01-28T18:01:34.622Z,52.13
2023-01-28T18:04:01.572Z,51.96
2023-01-28T18:06:32.787Z,53.11
2023-01-28T18:09:00.061Z,52.81
2023-01-28T18:11:27.070Z,53.68
2023-01-28T18:13:53.565Z,53.76
2023-01-28T18:16:21.243Z,54.72
2023-01-28T18:18:49.602Z,54.17
2023-01-28T18:21:51.683Z,54.82
2023-01-28T18:24:20.644Z,55.66
2023-01-28T18:26:47.624Z,55.53
2023-01-28T18:29:20.392Z,54.99
2023-01-28T18:31:48.632Z,55.03
2023-01-28T18:34:15.214Z,55.22
2023-01-28T18:36:42.083Z,54.78
2023-01-28T18:39:13.595Z,55.76
2023-01-28T18:41:40.707Z,54.87
2023-01-28T18:44:13.067Z,55.43
2023-01-28T18:46:40.169Z,56.14
2023-01-28T18:49:07.192Z,56.76
2023-01-28T18:51:33.833Z,56.79
2023-01-28T18:54:02.961Z,56.79
2023-01-28T18:56:30.791Z,56.94
2023-01-28T18:58:59.301Z,57.36
2023-01-28T19:01:26.767Z,57.96
2023-01-28T19:03:56.045Z,58.90
2023-01-28T19:06:23.869Z,58.28
2023-01-28T19:08:56.042Z,58.92
2023-01-28T19:11:24.959Z,58.70
2023-01-28T19:13:52.295Z,58.96
2023-01-28T19:16:20.138Z,59.47
2023-01-28T19:18:59.332Z,59.59
2023-01-28T19:21:28.102Z,59.98
2023-01-28T19:23:57.102Z,60.05
2023-01-28T19:26:25.391Z,59.19
2023-01-28T19:28:52.388Z,58.89
2023-01-28T19:31:21.068Z,59.09
2023-01-28T19:33:49.395Z,60.35
2023-01-28T19:36:16.368Z,59.98
2023-01-28T19:38:43.285Z,60.44
2023-01-28T19:41:12.307Z,60.95
2023-01-28T19:43:39.047Z,61.23
2023-01-28T19:46:06.266Z,62.05
2023-01-28T19:48:34.014Z,63.50
2023-01-28T19:51:08.169Z,63.31
2023-01-28T19:53:36.575Z,63.33
2023-01-28T19:56:06.620Z,63.35
2023-01-28T19:58:35.132Z,62.96
2023-01-28T20:01:11.716Z,62.91
2023-01-28T20:03:38.474Z,62.89
2023-01-28T20:06:07.898Z,62.99
2023-01-28T20:08:34.580Z,63.20
2023-01-28T20:11:12.451Z,63.40
2023-01-28T20:13:41.046Z,62.68
2023-01-28T20:16:11.530Z,63.21
2023-01-28T20:18:38.087Z,63.35
2023-01-28T20:21:10.952Z,63.13
2023-01-28T20:23:37.506Z,61.63
2023-01-28T20:26:04.274Z,61.40
2023-01-28T20:28:30.980Z,61.72
2023-01-28T20:30:57.855Z,62.00
2023-01-28T20:33:24.856Z,61.79
2023-01-28T20:35:51.387Z,61.73
2023-01-28T20:38:21.098Z,61.09
2023-01-28T20:40:47.757Z,60.91
2023-01-28T20:43:14.300Z,61.34
2023-01-28T20:45:40.961Z,61.46
2023-01-28T20:48:07.447Z,62.09
2023-01-28T20:50:34.735Z,62.22
2023-01-28T20:53:01.384Z,61.88
2023-01-28T20:55:28.671Z,62.64
2023-01-28T20:57:55.313Z,63.43
2023-01-28T21:00:22.336Z,63.36
2023-01-28T21:02:49.026Z,63.06
2023-01-28T21:05:15.855Z,63.00
2023-01-28T21:07:42.495Z,63.70
2023-01-28T21:10:09.805Z,63.07
2023-01-28T21:12:36.374Z,64.64
2023-01-28T21:15:03.023Z,64.35
2023-01-28T21:17:31.747Z,64.44
2023-01-28T21:19:58.711Z,65.03
2023-01-28T21:22:25.245Z,64.83
2023-01-28T21:24:52.009Z,64.10
2023-01-28T21:27:18.673Z,64.13
2023-01-28T21:29:45.298Z,64.49
2023-01-28T21:32:11.931Z,64.89
2023-01-28T21:34:38.633Z,65.25
2023-01-28T21:37:05.125Z,65.01
2023-01-28T21:39:31.778Z,65.56
2023-01-28T21:41:58.301Z,65.25
2023-01-28T21:44:24.995Z,65.74
2023-01-28T21:46:51.632Z,66.52
2023-01-28T21:49:18.359Z,65.48
2023-01-28T21:51:47.564Z,66.22
2023-01-28T21:54:19.165Z,65.49
2023-01-28T21:56:50.155Z,65.99
2023-01-28T21:59:30.681Z,65.87
2023-01-28T22:02:04.048Z,66.01
2023-01-28T22:04:36.430Z,66.09
2023-01-28T22:07:05.564Z,66.44
2023-01-28T22:09:33.737Z,66.91
2023-01-28T22:12:00.889Z,67.76
2023-01-28T22:14:27.588Z,67.26
2023-01-28T22:16:54.655Z,67.95
2023-01-28T22:19:24.385Z,67.89
2023-01-28T22:21:50.961Z,68.02
2023-01-28T22:24:20.158Z,68.52
2023-01-28T22:26:47.645Z,68.81
2023-01-28T22:29:16.369Z,68.93
2023-01-28T22:31:45.723Z,69.43
2023-01-28T22:34:12.638Z,69.35
2023-01-28T22:36:39.388Z,69.59
2023-01-28T22:39:08.595Z,69.74
2023-01-28T22:41:35.138Z,70.60
2023-01-28T22:44:03.588Z,70.04
2023-01-28T22:46:33.277Z,70.48
2023-01-28T22:49:00.787Z,70.71
2023-01-28T22:51:30.674Z,71.11
2023-01-28T22:53:57.700Z,71.37
2023-01-28T22:56:27.297Z,71.60
2023-01-28T22:58:55.737Z,70.94
2023-01-28T23:01:22.412Z,71.43
2023-01-28T23:03:50.397Z,70.81
2023-01-28T23:06:19.737Z,71.94
2023-01-28T23:08:47.542Z,71.99
2023-01-28T23:11:15.295Z,71.50
2023-01-28T23:14:03.864Z,71.86
2023-01-28T23:16:49.387Z,71.33
2023-01-28T23:19:35.612Z,71.38
2023-01-28T23:22:20.628Z,71.61
2023-01-28T23:24:47.170Z,71.82
2023-01-28T23:27:13.715Z,71.41
2023-01-28T23:29:40.304Z,71.75
2023-01-28T23:32:11.151Z,71.40
2023-01-28T23:34:40.648Z,71.99
2023-01-28T23:37:09.402Z,72.12
2023-01-28T23:39:36.275Z,71.32
2023-01-28T23:42:13.925Z,71.36
2023-01-28T23:44:41.236Z,71.16
2023-01-28T23:47:08.279Z,70.81
2023-01-28T23:49:35.041Z,70.83
2023-01-28T23:52:06.343Z,70.25
2023-01-28T23:54:33.350Z,70.91
2023-01-28T23:57:00.939Z,70.42
2023-01-28T23:59:27.575Z,70.41
